sensor_id;sensor_type;location;lat;lon;timestamp;pressure;altitude;pressure_sealevel;temperature;humidity
59608;BME280;45426;44.726;10.390;2023-04-08T00:00:12;100581.28;;;9.88;100.00
59608;BME280;45426;44.726;10.390;2023-04-08T00:02:38;100584.28;;;9.95;100.00
59608;BME280;45426;44.726;10.390;2023-04-08T00:05:04;100582.69;;;9.85;100.00
59608;BME280;45426;44.726;10.390;2023-04-08T00:07:30;100590.03;;;9.94;100.00
59608;BME280;45426;44.726;10.390;2023-04-08T00:09:55;100578.03;;;9.95;100.00
59608;BME280;45426;44.726;10.390;2023-04-08T00:12:21;100591.91;;;10.02;100.00
59608;BME280;45426;44.726;10.390;2023-04-08T00:14:46;100595.69;;;9.19;100.00
59608;BME280;45426;44.726;10.390;2023-04-08T00:17:12;100596.00;;;9.08;100.00
59608;BME280;45426;44.726;10.390;2023-04-08T00:19:37;100602.81;;;8.80;100.00
59608;BME280;45426;44.726;10.390;2023-04-08T00:22:02;100596.66;;;9.05;100.00
59608;BME280;45426;44.726;10.390;2023-04-08T00:24:28;100603.03;;;9.09;100.00
59608;BME280;45426;44.726;10.390;2023-04-08T00:26:53;100601.75;;;9.33;100.00
59608;BME280;45426;44.726;10.390;2023-04-08T00:29:19;100595.19;;;9.69;100.00
59608;BME280;45426;44.726;10.390;2023-04-08T00:31:44;100597.72;;;9.74;100.00
59608;BME280;45426;44.726;10.390;2023-04-08T00:34:10;100598.50;;;9.83;100.00
59608;BME280;45426;44.726;10.390;2023-04-08T00:36:36;100593.53;;;9.85;100.00
59608;BME280;45426;44.726;10.390;2023-04-08T00:39:01;100587.81;;;9.87;100.00
59608;BME280;45426;44.726;10.390;2023-04-08T00:41:28;100579.50;;;9.83;100.00
59608;BME280;45426;44.726;10.390;2023-04-08T00:43:53;100580.75;;;9.95;100.00
59608;BME280;45426;44.726;10.390;2023-04-08T00:46:20;100575.91;;;9.62;100.00
59608;BME280;45426;44.726;10.390;2023-04-08T00:48:46;100582.28;;;9.31;100.00
59608;BME280;45426;44.726;10.390;2023-04-08T00:51:11;100579.72;;;9.69;100.00
59608;BME280;45426;44.726;10.390;2023-04-08T00:53:37;100578.25;;;9.89;100.00
59608;BME280;45426;44.726;10.390;2023-04-08T00:56:02;100580.13;;;9.98;100.00
59608;BME280;45426;44.726;10.390;2023-04-08T00:58:28;100582.53;;;9.90;100.00
59608;BME280;45426;44.726;10.390;2023-04-08T01:00:59;100583.47;;;9.95;100.00
59608;BME280;45426;44.726;10.390;2023-04-08T01:03:41;100584.06;;;10.18;100.00
59608;BME280;45426;44.726;10.390;2023-04-08T01:06:16;100596.00;;;9.61;100.00
59608;BME280;45426;44.726;10.390;2023-04-08T01:08:46;100604.94;;;9.18;100.00
59608;BME280;45426;44.726;10.390;2023-04-08T01:11:14;100596.09;;;8.77;100.00
59608;BME280;45426;44.726;10.390;2023-04-08T01:13:41;100601.44;;;8.51;100.00
59608;BME280;45426;44.726;10.390;2023-04-08T01:16:13;100594.16;;;8.60;100.00
59608;BME280;45426;44.726;10.390;2023-04-08T01:18:41;100597.56;;;8.83;100.00
59608;BME280;45426;44.726;10.390;2023-04-08T01:21:08;100599.63;;;8.86;100.00
59608;BME280;45426;44.726;10.390;2023-04-08T01:23:45;100595.03;;;9.04;100.00
59608;BME280;45426;44.726;10.390;2023-04-08T01:26:23;100589.78;;;9.69;100.00
59608;BME280;45426;44.726;10.390;2023-04-08T01:28:55;100584.59;;;9.94;100.00
59608;BME280;45426;44.726;10.390;2023-04-08T01:31:23;100581.28;;;9.88;100.00
59608;BME280;45426;44.726;10.390;2023-04-08T01:33:50;100583.03;;;9.84;100.00
59608;BME280;45426;44.726;10.390;2023-04-08T01:36:16;100582.38;;;9.96;100.00
59608;BME280;45426;44.726;10.390;2023-04-08T01:38:42;100574.94;;;9.40;100.00
59608;BME280;45426;44.726;10.390;2023-04-08T01:41:09;100580.72;;;9.30;100.00
59608;BME280;45426;44.726;10.390;2023-04-08T01:43:35;100580.56;;;9.26;100.00
59608;BME280;45426;44.726;10.390;2023-04-08T01:46:04;100588.19;;;9.16;100.00
59608;BME280;45426;44.726;10.390;2023-04-08T01:48:31;100586.47;;;9.37;100.00
59608;BME280;45426;44.726;10.390;2023-04-08T01:50:57;100581.31;;;9.62;100.00
59608;BME280;45426;44.726;10.390;2023-04-08T01:53:24;100584.50;;;9.55;100.00
59608;BME280;45426;44.726;10.390;2023-04-08T01:55:54;100583.84;;;9.67;100.00
59608;BME280;45426;44.726;10.390;2023-04-08T01:58:21;100583.09;;;9.40;100.00
59608;BME280;45426;44.726;10.390;2023-04-08T02:00:50;100585.31;;;9.56;100.00
59608;BME280;45426;44.726;10.390;2023-04-08T02:03:18;100592.72;;;8.54;100.00
59608;BME280;45426;44.726;10.390;2023-04-08T02:05:46;100593.97;;;8.48;100.00
59608;BME280;45426;44.726;10.390;2023-04-08T02:08:12;100586.09;;;8.38;100.00
59608;BME280;45426;44.726;10.390;2023-04-08T02:10:37;100582.84;;;8.58;100.00
59608;BME280;45426;44.726;10.390;2023-04-08T02:13:03;100583.06;;;8.88;100.00
59608;BME280;45426;44.726;10.390;2023-04-08T02:15:33;100574.47;;;9.29;100.00
59608;BME280;45426;44.726;10.390;2023-04-08T02:18:06;100573.84;;;9.24;100.00
59608;BME280;45426;44.726;10.390;2023-04-08T02:20:53;100571.59;;;9.35;100.00
59608;BME280;45426;44.726;10.390;2023-04-08T02:23:22;100567.16;;;9.21;100.00
59608;BME280;45426;44.726;10.390;2023-04-08T02:25:49;100561.91;;;9.33;100.00
59608;BME280;45426;44.726;10.390;2023-04-08T02:28:16;100569.88;;;9.04;100.00
59608;BME280;45426;44.726;10.390;2023-04-08T02:30:47;100567.47;;;9.28;100.00
59608;BME280;45426;44.726;10.390;2023-04-08T02:33:14;100568.41;;;9.24;100.00
59608;BME280;45426;44.726;10.390;2023-04-08T02:35:43;100567.97;;;9.13;100.00
59608;BME280;45426;44.726;10.390;2023-04-08T02:38:09;100568.75;;;9.22;100.00
59608;BME280;45426;44.726;10.390;2023-04-08T02:40:36;100566.03;;;9.31;100.00
59608;BME280;45426;44.726;10.390;2023-04-08T02:43:02;100558.06;;;9.35;100.00
59608;BME280;45426;44.726;10.390;2023-04-08T02:45:37;100557.56;;;9.32;100.00
59608;BME280;45426;44.726;10.390;2023-04-08T02:48:03;100560.25;;;9.59;100.00
59608;BME280;45426;44.726;10.390;2023-04-08T02:50:29;100559.16;;;9.42;100.00
59608;BME280;45426;44.726;10.390;2023-04-08T02:52:54;100560.59;;;9.48;100.00
59608;BME280;45426;44.726;10.390;2023-04-08T02:55:20;100566.03;;;9.48;100.00
59608;BME280;45426;44.726;10.390;2023-04-08T02:57:46;100566.00;;;9.57;100.00
59608;BME280;45426;44.726;10.390;2023-04-08T03:00:12;100564.09;;;9.49;100.00
59608;BME280;45426;44.726;10.390;2023-04-08T03:02:38;100571.28;;;9.10;100.00
59608;BME280;45426;44.726;10.390;2023-04-08T03:05:04;100573.38;;;8.38;100.00
59608;BME280;45426;44.726;10.390;2023-04-08T03:07:30;100572.22;;;8.30;100.00
59608;BME280;45426;44.726;10.390;2023-04-08T03:09:56;100571.53;;;8.47;100.00
59608;BME280;45426;44.726;10.390;2023-04-08T03:12:21;100565.41;;;9.17;100.00
59608;BME280;45426;44.726;10.390;2023-04-08T03:14:49;100564.75;;;9.20;100.00
59608;BME280;45426;44.726;10.390;2023-04-08T03:17:15;100557.09;;;9.22;100.00
59608;BME280;45426;44.726;10.390;2023-04-08T03:19:40;100559.63;;;9.44;100.00
59608;BME280;45426;44.726;10.390;2023-04-08T03:22:06;100567.28;;;9.51;100.00
59608;BME280;45426;44.726;10.390;2023-04-08T03:24:31;100566.47;;;9.68;100.00
59608;BME280;45426;44.726;10.390;2023-04-08T03:26:56;100570.28;;;9.67;100.00
59608;BME280;45426;44.726;10.390;2023-04-08T03:29:22;100560.88;;;9.56;100.00
59608;BME280;45426;44.726;10.390;2023-04-08T03:31:47;100567.28;;;9.60;100.00
59608;BME280;45426;44.726;10.390;2023-04-08T03:34:12;100577.66;;;9.49;100.00
59608;BME280;45426;44.726;10.390;2023-04-08T03:36:38;100581.66;;;8.90;100.00
59608;BME280;45426;44.726;10.390;2023-04-08T03:39:03;100576.34;;;8.68;100.00
59608;BME280;45426;44.726;10.390;2023-04-08T03:41:29;100579.72;;;8.73;100.00
59608;BME280;45426;44.726;10.390;2023-04-08T03:43:56;100576.09;;;9.39;100.00
59608;BME280;45426;44.726;10.390;2023-04-08T03:46:22;100583.72;;;9.46;100.00
59608;BME280;45426;44.726;10.390;2023-04-08T03:48:47;100583.25;;;9.18;100.00
59608;BME280;45426;44.726;10.390;2023-04-08T03:51:13;100589.78;;;9.25;100.00
59608;BME280;45426;44.726;10.390;2023-04-08T03:53:38;100588.19;;;9.16;100.00
59608;BME280;45426;44.726;10.390;2023-04-08T03:56:04;100594.25;;;9.21;100.00
59608;BME280;45426;44.726;10.390;2023-04-08T03:58:29;100590.59;;;9.26;100.00
59608;BME280;45426;44.726;10.390;2023-04-08T04:00:56;100601.75;;;9.16;100.00
59608;BME280;45426;44.726;10.390;2023-04-08T04:03:21;100603.97;;;9.31;100.00
59608;BME280;45426;44.726;10.390;2023-04-08T04:05:47;100613.06;;;9.44;100.00
59608;BME280;45426;44.726;10.390;2023-04-08T04:08:13;100612.41;;;9.03;100.00
59608;BME280;45426;44.726;10.390;2023-04-08T04:10:38;100617.75;;;8.28;100.00
59608;BME280;45426;44.726;10.390;2023-04-08T04:13:03;100623.19;;;8.06;100.00
59608;BME280;45426;44.726;10.390;2023-04-08T04:15:30;100628.59;;;8.68;100.00
59608;BME280;45426;44.726;10.390;2023-04-08T04:17:55;100622.53;;;8.31;100.00
59608;BME280;45426;44.726;10.390;2023-04-08T04:20:21;100622.28;;;8.99;100.00
59608;BME280;45426;44.726;10.390;2023-04-08T04:22:46;100626.56;;;8.83;100.00
59608;BME280;45426;44.726;10.390;2023-04-08T04:25:12;100631.13;;;8.65;100.00
59608;BME280;45426;44.726;10.390;2023-04-08T04:27:37;100638.31;;;8.69;100.00
59608;BME280;45426;44.726;10.390;2023-04-08T04:30:03;100624.72;;;9.27;100.00
59608;BME280;45426;44.726;10.390;2023-04-08T04:32:29;100627.13;;;9.37;100.00
59608;BME280;45426;44.726;10.390;2023-04-08T04:34:54;100622.19;;;9.39;100.00
59608;BME280;45426;44.726;10.390;2023-04-08T04:37:19;100622.34;;;9.34;100.00
59608;BME280;45426;44.726;10.390;2023-04-08T04:39:45;100627.94;;;9.46;100.00
59608;BME280;45426;44.726;10.390;2023-04-08T04:42:11;100632.06;;;9.44;100.00
59608;BME280;45426;44.726;10.390;2023-04-08T04:44:37;100630.75;;;9.24;100.00
59608;BME280;45426;44.726;10.390;2023-04-08T04:47:02;100634.94;;;9.30;100.00
59608;BME280;45426;44.726;10.390;2023-04-08T04:49:28;100638.91;;;9.15;100.00
59608;BME280;45426;44.726;10.390;2023-04-08T04:51:53;100638.75;;;9.29;100.00
59608;BME280;45426;44.726;10.390;2023-04-08T04:54:18;100637.94;;;9.20;100.00
59608;BME280;45426;44.726;10.390;2023-04-08T04:56:44;100637.63;;;9.12;100.00
59608;BME280;45426;44.726;10.390;2023-04-08T04:59:10;100644.28;;;8.98;100.00
59608;BME280;45426;44.726;10.390;2023-04-08T05:01:35;100637.31;;;9.05;100.00
59608;BME280;45426;44.726;10.390;2023-04-08T05:04:01;100646.69;;;8.99;100.00
59608;BME280;45426;44.726;10.390;2023-04-08T05:06:26;100650.63;;;8.76;100.00
59608;BME280;45426;44.726;10.390;2023-04-08T05:08:52;100650.00;;;8.87;100.00
59608;BME280;45426;44.726;10.390;2023-04-08T05:11:18;100647.47;;;8.51;100.00
59608;BME280;45426;44.726;10.390;2023-04-08T05:13:44;100659.59;;;8.22;100.00
59608;BME280;45426;44.726;10.390;2023-04-08T05:16:09;100667.66;;;8.13;100.00
59608;BME280;45426;44.726;10.390;2023-04-08T05:18:35;100660.00;;;8.07;100.00
59608;BME280;45426;44.726;10.390;2023-04-08T05:21:01;100669.06;;;8.11;100.00
59608;BME280;45426;44.726;10.390;2023-04-08T05:23:27;100667.34;;;8.15;100.00
59608;BME280;45426;44.726;10.390;2023-04-08T05:25:52;100664.88;;;8.27;100.00
59608;BME280;45426;44.726;10.390;2023-04-08T05:28:18;100662.84;;;8.33;100.00
59608;BME280;45426;44.726;10.390;2023-04-08T05:30:48;100652.19;;;8.77;100.00
59608;BME280;45426;44.726;10.390;2023-04-08T05:33:14;100653.06;;;9.03;100.00
59608;BME280;45426;44.726;10.390;2023-04-08T05:35:40;100643.22;;;9.07;100.00
59608;BME280;45426;44.726;10.390;2023-04-08T05:38:05;100650.53;;;9.16;100.00
59608;BME280;45426;44.726;10.390;2023-04-08T05:40:31;100661.19;;;8.94;100.00
59608;BME280;45426;44.726;10.390;2023-04-08T05:42:57;100650.22;;;9.08;100.00
59608;BME280;45426;44.726;10.390;2023-04-08T05:45:22;100656.28;;;9.23;100.00
59608;BME280;45426;44.726;10.390;2023-04-08T05:47:48;100665.72;;;9.51;100.00
59608;BME280;45426;44.726;10.390;2023-04-08T05:50:13;100655.63;;;9.08;100.00
59608;BME280;45426;44.726;10.390;2023-04-08T05:52:42;100666.88;;;8.84;100.00
59608;BME280;45426;44.726;10.390;2023-04-08T05:55:12;100659.00;;;9.23;100.00
59608;BME280;45426;44.726;10.390;2023-04-08T05:57:37;100660.28;;;9.86;100.00
59608;BME280;45426;44.726;10.390;2023-04-08T06:00:07;100662.91;;;10.30;100.00
59608;BME280;45426;44.726;10.390;2023-04-08T06:02:34;100660.34;;;10.42;100.00
59608;BME280;45426;44.726;10.390;2023-04-08T06:05:00;100661.16;;;11.02;100.00
59608;BME280;45426;44.726;10.390;2023-04-08T06:07:25;100658.28;;;11.29;100.00
59608;BME280;45426;44.726;10.390;2023-04-08T06:09:51;100654.81;;;11.82;100.00
59608;BME280;45426;44.726;10.390;2023-04-08T06:12:16;100661.13;;;12.53;100.00
59608;BME280;45426;44.726;10.390;2023-04-08T06:14:41;100645.81;;;13.79;100.00
59608;BME280;45426;44.726;10.390;2023-04-08T06:17:07;100644.56;;;14.52;100.00
59608;BME280;45426;44.726;10.390;2023-04-08T06:19:32;100649.25;;;15.19;100.00
59608;BME280;45426;44.726;10.390;2023-04-08T06:21:58;100640.66;;;15.99;100.00
59608;BME280;45426;44.726;10.390;2023-04-08T06:24:25;100653.03;;;17.08;100.00
59608;BME280;45426;44.726;10.390;2023-04-08T06:26:51;100643.34;;;17.82;100.00
59608;BME280;45426;44.726;10.390;2023-04-08T06:29:18;100646.22;;;17.25;100.00
59608;BME280;45426;44.726;10.390;2023-04-08T06:31:43;100647.84;;;18.35;100.00
59608;BME280;45426;44.726;10.390;2023-04-08T06:34:08;100650.25;;;19.76;100.00
59608;BME280;45426;44.726;10.390;2023-04-08T06:36:34;100646.97;;;19.42;100.00
59608;BME280;45426;44.726;10.390;2023-04-08T06:38:59;100640.97;;;22.40;100.00
59608;BME280;45426;44.726;10.390;2023-04-08T06:41:25;100637.03;;;23.20;100.00
59608;BME280;45426;44.726;10.390;2023-04-08T06:43:50;100648.53;;;26.02;100.00
59608;BME280;45426;44.726;10.390;2023-04-08T06:46:16;100657.28;;;23.48;100.00
59608;BME280;45426;44.726;10.390;2023-04-08T06:48:41;100658.78;;;25.49;100.00
59608;BME280;45426;44.726;10.390;2023-04-08T06:51:06;100659.34;;;24.29;100.00
59608;BME280;45426;44.726;10.390;2023-04-08T06:53:33;100654.72;;;25.13;100.00
59608;BME280;45426;44.726;10.390;2023-04-08T06:55:59;100662.09;;;24.56;100.00
59608;BME280;45426;44.726;10.390;2023-04-08T06:58:24;100662.72;;;24.68;100.00
59608;BME280;45426;44.726;10.390;2023-04-08T07:00:50;100665.31;;;26.81;100.00
59608;BME280;45426;44.726;10.390;2023-04-08T07:03:15;100671.50;;;24.12;100.00
59608;BME280;45426;44.726;10.390;2023-04-08T07:05:40;100674.09;;;26.79;100.00
59608;BME280;45426;44.726;10.390;2023-04-08T07:08:06;100676.47;;;23.97;100.00
59608;BME280;45426;44.726;10.390;2023-04-08T07:10:33;100672.00;;;23.07;100.00
59608;BME280;45426;44.726;10.390;2023-04-08T07:12:59;100670.53;;;26.13;100.00
59608;BME280;45426;44.726;10.390;2023-04-08T07:15:25;100678.81;;;26.82;100.00
59608;BME280;45426;44.726;10.390;2023-04-08T07:17:50;100671.25;;;25.21;100.00
59608;BME280;45426;44.726;10.390;2023-04-08T07:20:16;100675.09;;;27.02;100.00
59608;BME280;45426;44.726;10.390;2023-04-08T07:22:42;100668.06;;;27.26;100.00
59608;BME280;45426;44.726;10.390;2023-04-08T07:25:08;100677.06;;;25.50;100.00
59608;BME280;45426;44.726;10.390;2023-04-08T07:27:34;100683.16;;;27.42;100.00
59608;BME280;45426;44.726;10.390;2023-04-08T07:29:59;100674.91;;;25.37;100.00
59608;BME280;45426;44.726;10.390;2023-04-08T07:32:25;100677.47;;;25.68;100.00
59608;BME280;45426;44.726;10.390;2023-04-08T07:34:51;100679.09;;;25.06;100.00
59608;BME280;45426;44.726;10.390;2023-04-08T07:37:17;100672.31;;;28.24;89.58
59608;BME280;45426;44.726;10.390;2023-04-08T07:39:42;100683.00;;;26.25;100.00
59608;BME280;45426;44.726;10.390;2023-04-08T07:42:08;100683.16;;;26.83;100.00
59608;BME280;45426;44.726;10.390;2023-04-08T07:44:33;100676.88;;;28.57;100.00
59608;BME280;45426;44.726;10.390;2023-04-08T07:46:58;100684.09;;;24.71;100.00
59608;BME280;45426;44.726;10.390;2023-04-08T07:49:24;100677.81;;;28.02;100.00
59608;BME280;45426;44.726;10.390;2023-04-08T07:51:49;100675.34;;;29.35;90.48
59608;BME280;45426;44.726;10.390;2023-04-08T07:54:15;100676.47;;;29.69;85.73
59608;BME280;45426;44.726;10.390;2023-04-08T07:56:42;100693.19;;;27.10;100.00
59608;BME280;45426;44.726;10.390;2023-04-08T07:59:09;100682.97;;;26.74;100.00
59608;BME280;45426;44.726;10.390;2023-04-08T08:01:36;100687.63;;;28.07;100.00
59608;BME280;45426;44.726;10.390;2023-04-08T08:04:01;100681.34;;;28.41;94.21
59608;BME280;45426;44.726;10.390;2023-04-08T08:06:27;100681.59;;;27.11;100.00
59608;BME280;45426;44.726;10.390;2023-04-08T08:08:53;100682.97;;;26.74;100.00
59608;BME280;45426;44.726;10.390;2023-04-08T08:11:18;100679.53;;;27.71;100.00
59608;BME280;45426;44.726;10.390;2023-04-08T08:13:45;100686.25;;;28.98;86.18
59608;BME280;45426;44.726;10.390;2023-04-08T08:16:10;100687.41;;;24.62;100.00
59608;BME280;45426;44.726;10.390;2023-04-08T08:18:37;100678.88;;;27.79;100.00
59608;BME280;45426;44.726;10.390;2023-04-08T08:21:04;100696.66;;;26.68;100.00
59608;BME280;45426;44.726;10.390;2023-04-08T08:23:30;100693.69;;;25.53;100.00
59608;BME280;45426;44.726;10.390;2023-04-08T08:26:06;100695.13;;;25.98;100.00
59608;BME280;45426;44.726;10.390;2023-04-08T08:28:34;100691.53;;;27.13;100.00
59608;BME280;45426;44.726;10.390;2023-04-08T08:31:00;100700.28;;;25.19;100.00
59608;BME280;45426;44.726;10.390;2023-04-08T08:33:26;100699.00;;;26.21;100.00
59608;BME280;45426;44.726;10.390;2023-04-08T08:35:52;100696.81;;;24.92;100.00
59608;BME280;45426;44.726;10.390;2023-04-08T08:38:17;100709.88;;;22.16;100.00
59608;BME280;45426;44.726;10.390;2023-04-08T08:40:43;100707.16;;;20.74;100.00
59608;BME280;45426;44.726;10.390;2023-04-08T08:43:10;100714.19;;;20.21;100.00
59608;BME280;45426;44.726;10.390;2023-04-08T08:45:39;100721.88;;;19.69;100.00
59608;BME280;45426;44.726;10.390;2023-04-08T08:48:06;100720.97;;;17.72;100.00
59608;BME280;45426;44.726;10.390;2023-04-08T08:50:33;100720.22;;;17.44;100.00
59608;BME280;45426;44.726;10.390;2023-04-08T08:52:59;100708.44;;;19.60;100.00
59608;BME280;45426;44.726;10.390;2023-04-08T08:55:25;100713.00;;;19.27;100.00
59608;BME280;45426;44.726;10.390;2023-04-08T08:57:50;100711.69;;;18.17;100.00
59608;BME280;45426;44.726;10.390;2023-04-08T09:00:16;100715.09;;;18.03;100.00
59608;BME280;45426;44.726;10.390;2023-04-08T09:02:42;100714.41;;;19.03;100.00
59608;BME280;45426;44.726;10.390;2023-04-08T09:05:08;100701.69;;;19.47;100.00
59608;BME280;45426;44.726;10.390;2023-04-08T09:07:39;100710.50;;;19.04;100.00
59608;BME280;45426;44.726;10.390;2023-04-08T09:10:05;100709.59;;;18.45;100.00
59608;BME280;45426;44.726;10.390;2023-04-08T09:12:31;100701.50;;;19.95;100.00
59608;BME280;45426;44.726;10.390;2023-04-08T09:15:07;100692.16;;;20.57;100.00
59608;BME280;45426;44.726;10.390;2023-04-08T09:17:34;100703.84;;;19.86;100.00
59608;BME280;45426;44.726;10.390;2023-04-08T09:22:34;100698.81;;;19.22;100.00
59608;BME280;45426;44.726;10.390;2023-04-08T09:24:59;100698.75;;;19.14;100.00
59608;BME280;45426;44.726;10.390;2023-04-08T09:27:34;100696.06;;;20.27;100.00
59608;BME280;45426;44.726;10.390;2023-04-08T09:30:13;100700.13;;;18.01;100.00
59608;BME280;45426;44.726;10.390;2023-04-08T09:35:14;100688.97;;;19.24;100.00
59608;BME280;45426;44.726;10.390;2023-04-08T09:37:41;100679.50;;;20.16;100.00
59608;BME280;45426;44.726;10.390;2023-04-08T09:40:07;100684.00;;;18.85;100.00
59608;BME280;45426;44.726;10.390;2023-04-08T09:42:35;100678.84;;;19.43;100.00
59608;BME280;45426;44.726;10.390;2023-04-08T09:45:03;100687.84;;;17.91;100.00
59608;BME280;45426;44.726;10.390;2023-04-08T09:47:31;100683.16;;;19.40;100.00
59608;BME280;45426;44.726;10.390;2023-04-08T09:50:01;100690.94;;;18.68;100.00
59608;BME280;45426;44.726;10.390;2023-04-08T09:53:01;100687.28;;;19.05;100.00
59608;BME280;45426;44.726;10.390;2023-04-08T09:55:30;100687.94;;;19.54;100.00
59608;BME280;45426;44.726;10.390;2023-04-08T09:58:07;100689.03;;;17.90;100.00
59608;BME280;45426;44.726;10.390;2023-04-08T10:00:41;100682.50;;;16.61;100.00
59608;BME280;45426;44.726;10.390;2023-04-08T10:03:29;100682.91;;;17.13;100.00
59608;BME280;45426;44.726;10.390;2023-04-08T10:05:57;100668.31;;;19.63;100.00
59608;BME280;45426;44.726;10.390;2023-04-08T10:08:25;100672.00;;;20.10;100.00
59608;BME280;45426;44.726;10.390;2023-04-08T10:10:53;100678.38;;;19.30;100.00
59608;BME280;45426;44.726;10.390;2023-04-08T10:13:19;100679.09;;;20.04;100.00
59608;BME280;45426;44.726;10.390;2023-04-08T10:15:44;100670.09;;;20.50;100.00
59608;BME280;45426;44.726;10.390;2023-04-08T10:20:44;100681.44;;;16.93;100.00
59608;BME280;45426;44.726;10.390;2023-04-08T10:23:11;100682.81;;;17.06;100.00
59608;BME280;45426;44.726;10.390;2023-04-08T10:25:45;100662.41;;;18.91;100.00
59608;BME280;45426;44.726;10.390;2023-04-08T10:30:46;100662.09;;;19.87;100.00
59608;BME280;45426;44.726;10.390;2023-04-08T10:35:52;100669.13;;;18.93;100.00
59608;BME280;45426;44.726;10.390;2023-04-08T10:38:18;100665.53;;;18.86;100.00
59608;BME280;45426;44.726;10.390;2023-04-08T10:40:44;100660.19;;;20.06;100.00
59608;BME280;45426;44.726;10.390;2023-04-08T10:43:11;100673.31;;;17.26;100.00
59608;BME280;45426;44.726;10.390;2023-04-08T10:45:37;100661.38;;;17.79;100.00
59608;BME280;45426;44.726;10.390;2023-04-08T10:50:38;100661.13;;;19.40;100.00
59608;BME280;45426;44.726;10.390;2023-04-08T10:53:04;100658.78;;;17.90;100.00
59608;BME280;45426;44.726;10.390;2023-04-08T10:55:30;100664.91;;;17.46;100.00
59608;BME280;45426;44.726;10.390;2023-04-08T10:58:05;100662.03;;;18.40;100.00
59608;BME280;45426;44.726;10.390;2023-04-08T11:00:38;100655.91;;;19.20;100.00
59608;BME280;45426;44.726;10.390;2023-04-08T11:03:08;100648.63;;;19.61;100.00
59608;BME280;45426;44.726;10.390;2023-04-08T11:05:35;100653.22;;;18.69;100.00
59608;BME280;45426;44.726;10.390;2023-04-08T11:08:01;100665.16;;;17.98;100.00
59608;BME280;45426;44.726;10.390;2023-04-08T11:10:27;100650.88;;;19.37;100.00
59608;BME280;45426;44.726;10.390;2023-04-08T11:12:57;100646.25;;;19.63;100.00
59608;BME280;45426;44.726;10.390;2023-04-08T11:15:23;100651.44;;;18.98;100.00
59608;BME280;45426;44.726;10.390;2023-04-08T11:17:50;100643.38;;;18.71;100.00
59608;BME280;45426;44.726;10.390;2023-04-08T11:20:16;100645.63;;;20.09;100.00
59608;BME280;45426;44.726;10.390;2023-04-08T11:22:43;100640.84;;;19.91;100.00
59608;BME280;45426;44.726;10.390;2023-04-08T11:25:09;100641.63;;;19.85;100.00
59608;BME280;45426;44.726;10.390;2023-04-08T11:27:36;100635.22;;;19.55;100.00
59608;BME280;45426;44.726;10.390;2023-04-08T11:30:02;100634.41;;;19.51;100.00
59608;BME280;45426;44.726;10.390;2023-04-08T11:32:28;100639.41;;;19.24;100.00
59608;BME280;45426;44.726;10.390;2023-04-08T11:34:54;100631.56;;;19.30;100.00
59608;BME280;45426;44.726;10.390;2023-04-08T11:37:20;100635.25;;;19.70;100.00
59608;BME280;45426;44.726;10.390;2023-04-08T11:39:46;100628.47;;;18.72;100.00
59608;BME280;45426;44.726;10.390;2023-04-08T11:42:27;100629.66;;;19.45;100.00
59608;BME280;45426;44.726;10.390;2023-04-08T11:44:53;100630.34;;;18.65;100.00
59608;BME280;45426;44.726;10.390;2023-04-08T11:47:18;100631.28;;;19.67;100.00
59608;BME280;45426;44.726;10.390;2023-04-08T11:49:45;100630.72;;;19.18;100.00
59608;BME280;45426;44.726;10.390;2023-04-08T11:52:10;100623.41;;;18.26;100.00
59608;BME280;45426;44.726;10.390;2023-04-08T11:54:40;100623.03;;;18.28;100.00
59608;BME280;45426;44.726;10.390;2023-04-08T11:57:07;100618.63;;;18.71;100.00
59608;BME280;45426;44.726;10.390;2023-04-08T11:59:37;100620.09;;;19.20;100.00
59608;BME280;45426;44.726;10.390;2023-04-08T12:02:03;100609.78;;;18.99;100.00
59608;BME280;45426;44.726;10.390;2023-04-08T12:04:29;100603.66;;;19.35;100.00
59608;BME280;45426;44.726;10.390;2023-04-08T12:06:55;100603.72;;;19.56;100.00
59608;BME280;45426;44.726;10.390;2023-04-08T12:09:20;100598.69;;;19.87;100.00
59608;BME280;45426;44.726;10.390;2023-04-08T12:11:46;100597.56;;;20.24;100.00
59608;BME280;45426;44.726;10.390;2023-04-08T12:14:11;100601.81;;;19.71;100.00
59608;BME280;45426;44.726;10.390;2023-04-08T12:16:37;100597.09;;;19.86;100.00
59608;BME280;45426;44.726;10.390;2023-04-08T12:19:02;100596.81;;;18.45;100.00
59608;BME280;45426;44.726;10.390;2023-04-08T12:21:28;100595.72;;;19.19;100.00
59608;BME280;45426;44.726;10.390;2023-04-08T12:23:53;100602.13;;;19.52;100.00
59608;BME280;45426;44.726;10.390;2023-04-08T12:26:18;100598.34;;;18.42;100.00
59608;BME280;45426;44.726;10.390;2023-04-08T12:28:44;100596.25;;;17.46;100.00
59608;BME280;45426;44.726;10.390;2023-04-08T12:31:10;100589.69;;;18.40;100.00
59608;BME280;45426;44.726;10.390;2023-04-08T12:33:36;100580.72;;;19.09;100.00
59608;BME280;45426;44.726;10.390;2023-04-08T12:36:02;100585.16;;;19.35;100.00
59608;BME280;45426;44.726;10.390;2023-04-08T12:38:27;100582.03;;;19.44;100.00
59608;BME280;45426;44.726;10.390;2023-04-08T12:40:53;100576.56;;;19.69;100.00
59608;BME280;45426;44.726;10.390;2023-04-08T12:43:19;100578.53;;;18.74;100.00
59608;BME280;45426;44.726;10.390;2023-04-08T12:45:45;100577.75;;;19.57;100.00
59608;BME280;45426;44.726;10.390;2023-04-08T12:48:11;100581.56;;;18.06;100.00